Time;durP1;ratioP1;P1;durP2;ratioP2;P2;SDS_P1;SDS_P2;PMS_P1;PMS_P2;Temp;Humidity;BMP_temperature;BMP_pressure;BME280_temperature;BME280_humidity;BME280_pressure;Samples;Min_cycle;Max_cycle;Signal;HPM_P1;HPM_P2
2021/06/30 00:01:03;;;;;;;11.18;5.53;;;20.90;73.00;;;;;;5075971;28;20046;-39
2021/06/30 00:03:29;;;;;;;5.75;4.88;;;20.80;73.10;;;;;;5075415;28;20024;-38
2021/06/30 00:05:55;;;;;;;8.35;5.43;;;20.80;73.10;;;;;;5074705;28;20028;-38
2021/06/30 00:08:21;;;;;;;13.00;5.88;;;20.80;73.30;;;;;;5075766;28;20028;-39
2021/06/30 00:10:47;;;;;;;7.20;5.30;;;20.80;73.30;;;;;;5076083;28;20327;-39
2021/06/30 00:13:13;;;;;;;8.95;5.75;;;20.80;73.30;;;;;;5075361;28;20039;-39
2021/06/30 00:15:40;;;;;;;8.63;6.10;;;20.70;73.40;;;;;;5076049;28;20103;-38
2021/06/30 00:18:06;;;;;;;11.02;6.10;;;20.70;73.40;;;;;;5075349;28;20063;-38
2021/06/30 00:20:32;;;;;;;7.03;5.57;;;20.70;73.50;;;;;;5077204;28;20412;-38
2021/06/30 00:22:57;;;;;;;7.95;5.63;;;20.70;73.60;;;;;;5079721;28;20070;-40
2021/06/30 00:25:23;;;;;;;8.85;5.53;;;20.60;73.60;;;;;;5079999;28;20289;-38
2021/06/30 00:27:50;;;;;;;8.85;5.50;;;20.60;74.20;;;;;;5079305;28;20032;-38
2021/06/30 00:30:17;;;;;;;9.63;5.63;;;20.60;73.60;;;;;;5079905;28;20033;-38
2021/06/30 00:32:43;;;;;;;9.20;6.30;;;20.60;73.60;;;;;;5079221;28;20033;-39
2021/06/30 00:35:10;;;;;;;9.45;5.88;;;20.60;74.00;;;;;;5079852;28;20412;-38
2021/06/30 00:37:35;;;;;;;8.68;6.05;;;20.60;73.30;;;;;;5079323;28;20041;-38
2021/06/30 00:40:01;;;;;;;7.65;5.90;;;20.60;73.10;;;;;;5079113;28;20037;-38
2021/06/30 00:42:30;;;;;;;10.88;6.40;;;20.60;73.20;;;;;;5079100;28;20033;-39
2021/06/30 00:44:56;;;;;;;7.85;5.57;;;20.60;73.20;;;;;;5079583;28;20024;-39
2021/06/30 00:47:22;;;;;;;8.25;5.80;;;20.50;73.00;;;;;;5078887;28;20086;-38
2021/06/30 00:49:49;;;;;;;8.95;5.53;;;20.50;72.80;;;;;;5079463;28;20036;-39
2021/06/30 00:52:15;;;;;;;10.35;5.60;;;20.50;72.70;;;;;;5078769;28;20037;-38
2021/06/30 00:54:41;;;;;;;6.43;5.03;;;20.50;72.60;;;;;;5079329;28;20029;-39
2021/06/30 00:57:09;;;;;;;8.52;5.72;;;20.50;72.60;;;;;;5078613;28;20119;-38
2021/06/30 00:59:38;;;;;;;8.65;5.38;;;20.50;72.50;;;;;;5079315;28;20032;-39
2021/06/30 01:02:04;;;;;;;8.55;5.43;;;20.50;72.50;;;;;;5078502;28;20040;-39
2021/06/30 01:04:31;;;;;;;7.55;5.45;;;20.40;72.30;;;;;;5079029;28;20032;-38
2021/06/30 01:06:56;;;;;;;7.43;5.03;;;20.40;72.20;;;;;;5078817;28;20020;-38
2021/06/30 01:09:22;;;;;;;6.82;5.15;;;20.40;72.20;;;;;;5078927;28;20617;-38
2021/06/30 01:11:48;;;;;;;5.97;4.75;;;20.40;72.30;;;;;;5078650;28;20052;-38
2021/06/30 01:14:28;;;;;;;5.68;4.75;;;20.40;72.20;;;;;;5078857;28;20040;-38
2021/06/30 01:16:55;;;;;;;9.30;4.97;;;20.40;72.10;;;;;;5078768;28;20440;-38
2021/06/30 01:19:22;;;;;;;6.93;5.22;;;20.40;72.00;;;;;;5078645;28;20043;-38
2021/06/30 01:21:50;;;;;;;7.57;5.05;;;20.30;71.80;;;;;;5078294;28;20033;-39
2021/06/30 01:24:16;;;;;;;8.68;5.60;;;20.30;71.80;;;;;;5078586;28;20119;-38
2021/06/30 01:26:43;;;;;;;7.10;5.00;;;20.30;71.80;;;;;;5078592;28;20031;-39
2021/06/30 01:29:09;;;;;;;6.63;4.35;;;20.30;72.00;;;;;;5078325;28;20024;-38
2021/06/30 01:31:35;;;;;;;7.57;5.30;;;20.30;72.10;;;;;;5078538;28;20386;-38
2021/06/30 01:34:01;;;;;;;6.82;4.63;;;20.30;72.10;;;;;;5078355;28;20094;-38
2021/06/30 01:36:26;;;;;;;6.10;4.80;;;20.30;72.10;;;;;;5078354;28;20032;-39
2021/06/30 01:38:52;;;;;;;5.28;4.38;;;20.20;72.00;;;;;;5077913;28;20143;-39
2021/06/30 01:41:18;;;;;;;6.85;4.85;;;20.20;72.00;;;;;;5078017;28;20328;-39
2021/06/30 01:43:43;;;;;;;5.68;4.63;;;20.20;72.00;;;;;;5077910;28;20028;-39
2021/06/30 01:46:09;;;;;;;7.88;5.13;;;20.20;71.90;;;;;;5078127;28;20074;-39
2021/06/30 01:48:36;;;;;;;6.60;4.43;;;20.20;71.70;;;;;;5077525;28;20035;-39
2021/06/30 01:51:01;;;;;;;8.23;5.13;;;20.10;71.60;;;;;;5078374;28;20031;-39
2021/06/30 01:53:27;;;;;;;8.30;5.78;;;20.10;71.60;;;;;;5077419;28;20036;-38
2021/06/30 01:55:53;;;;;;;11.52;5.13;;;20.10;71.70;;;;;;5078591;28;20053;-38
2021/06/30 01:58:21;;;;;;;8.80;5.78;;;20.10;71.70;;;;;;5078078;28;20419;-38
2021/06/30 02:00:51;;;;;;;7.47;5.00;;;20.00;71.70;;;;;;5078169;28;20109;-39
2021/06/30 02:03:17;;;;;;;7.20;5.47;;;20.00;71.70;;;;;;5077503;28;20031;-38
2021/06/30 02:05:43;;;;;;;7.05;4.90;;;20.00;71.70;;;;;;5078142;28;20067;-39
2021/06/30 02:08:09;;;;;;;6.78;4.65;;;20.00;71.60;;;;;;5077409;28;20064;-38
2021/06/30 02:10:35;;;;;;;9.50;5.25;;;20.00;71.60;;;;;;5078208;28;20035;-39
2021/06/30 02:13:01;;;;;;;7.03;4.97;;;20.00;71.70;;;;;;5077489;28;20066;-38
2021/06/30 02:15:29;;;;;;;11.45;5.05;;;19.90;71.70;;;;;;5078033;28;20102;-39
2021/06/30 02:17:56;;;;;;;5.43;4.10;;;19.90;71.80;;;;;;5077253;28;20089;-39
2021/06/30 02:20:23;;;;;;;6.63;4.60;;;19.90;71.70;;;;;;5077867;28;20115;-38
2021/06/30 02:22:50;;;;;;;6.68;5.07;;;19.90;71.80;;;;;;5077097;28;20110;-38
2021/06/30 02:25:19;;;;;;;7.93;4.85;;;19.90;71.90;;;;;;5077800;28;20035;-39
2021/06/30 02:27:45;;;;;;;6.35;5.35;;;19.90;72.10;;;;;;5077065;28;20037;-38
2021/06/30 02:30:17;;;;;;;7.38;5.22;;;19.90;72.20;;;;;;5077852;28;20016;-38
2021/06/30 02:32:43;;;;;;;8.93;5.80;;;19.90;72.30;;;;;;5077277;28;20029;-38
2021/06/30 02:35:13;;;;;;;8.52;5.22;;;19.90;72.50;;;;;;5077553;28;20100;-38
2021/06/30 02:37:39;;;;;;;14.15;5.85;;;19.90;72.70;;;;;;5077065;28;20385;-39
2021/06/30 02:40:08;;;;;;;8.43;5.53;;;19.90;72.70;;;;;;5077126;28;20080;-39
2021/06/30 02:42:34;;;;;;;7.10;5.18;;;19.90;72.70;;;;;;5076415;28;20367;-38
2021/06/30 02:45:00;;;;;;;5.28;4.40;;;19.90;72.70;;;;;;5077128;28;20112;-38
2021/06/30 02:47:25;;;;;;;9.45;5.43;;;19.90;72.60;;;;;;5076677;28;20428;-39
2021/06/30 02:49:51;;;;;;;6.90;5.40;;;19.90;72.60;;;;;;5077177;28;20028;-38
2021/06/30 02:52:17;;;;;;;6.90;5.05;;;19.90;72.70;;;;;;5076595;28;20064;-39
2021/06/30 02:54:42;;;;;;;8.55;6.05;;;20.00;72.80;;;;;;5077186;28;20372;-38
2021/06/30 02:57:08;;;;;;;5.68;4.97;;;20.00;72.90;;;;;;5076736;28;20039;-38
2021/06/30 02:59:34;;;;;;;8.32;5.45;;;20.00;72.90;;;;;;5076880;28;20477;-39
2021/06/30 03:01:59;;;;;;;8.00;4.70;;;20.00;73.10;;;;;;5076188;28;20041;-38
2021/06/30 03:04:25;;;;;;;8.82;4.78;;;20.00;73.00;;;;;;5076939;28;20024;-39
2021/06/30 03:06:51;;;;;;;8.52;5.75;;;20.00;72.90;;;;;;5076509;28;20028;-39
2021/06/30 03:09:19;;;;;;;6.30;4.72;;;20.10;73.10;;;;;;5076928;28;20055;-38
2021/06/30 03:11:45;;;;;;;7.28;4.80;;;20.10;72.90;;;;;;5076252;28;20037;-38
2021/06/30 03:14:11;;;;;;;8.18;4.70;;;20.20;72.90;;;;;;5076380;28;20050;-38
2021/06/30 03:16:36;;;;;;;5.97;4.68;;;20.20;73.30;;;;;;5076333;28;20036;-39
2021/06/30 03:19:02;;;;;;;9.25;5.10;;;20.30;73.20;;;;;;5076028;28;20061;-38
2021/06/30 03:21:28;;;;;;;5.45;4.30;;;20.30;72.90;;;;;;5076036;28;20036;-39
2021/06/30 03:23:54;;;;;;;5.60;4.32;;;20.40;72.70;;;;;;5076103;28;20035;-38
2021/06/30 03:26:19;;;;;;;8.15;4.63;;;20.40;73.00;;;;;;5076321;28;20039;-39
2021/06/30 03:28:45;;;;;;;7.05;3.90;;;20.50;73.20;;;;;;5076036;28;20029;-38
2021/06/30 03:31:11;;;;;;;6.20;4.00;;;20.60;73.10;;;;;;5076160;28;20032;-39
2021/06/30 03:33:36;;;;;;;8.35;4.47;;;20.60;73.00;;;;;;5074648;28;20362;-39
2021/06/30 03:36:04;;;;;;;6.63;4.38;;;20.60;72.70;;;;;;5076477;28;20451;-39
2021/06/30 03:38:30;;;;;;;6.97;4.50;;;20.70;73.20;;;;;;5075538;28;20025;-39
2021/06/30 03:40:56;;;;;;;6.65;4.25;;;20.80;73.00;;;;;;5076306;28;20036;-38
2021/06/30 03:43:22;;;;;;;5.32;4.00;;;20.90;73.20;;;;;;5075842;28;20025;-39
2021/06/30 03:45:47;;;;;;;6.15;4.50;;;20.90;73.10;;;;;;5076267;28;20449;-38
2021/06/30 03:48:13;;;;;;;7.15;3.95;;;21.00;73.00;;;;;;5075566;28;20365;-38
2021/06/30 03:50:39;;;;;;;7.85;3.50;;;21.10;72.60;;;;;;5076182;28;20119;-38
2021/06/30 03:53:04;;;;;;;5.43;3.95;;;21.20;72.30;;;;;;5075838;28;20102;-38
2021/06/30 03:55:30;;;;;;;6.43;4.60;;;21.30;72.10;;;;;;5075404;28;20443;-39
2021/06/30 03:57:56;;;;;;;5.80;4.07;;;21.30;72.00;;;;;;5075277;28;20028;-39
2021/06/30 04:00:26;;;;;;;6.97;4.53;;;21.40;71.50;;;;;;5076206;28;20028;-38
2021/06/30 04:02:52;;;;;;;6.00;3.72;;;21.60;71.20;;;;;;5075445;28;20029;-39
2021/06/30 04:05:18;;;;;;;8.23;4.07;;;21.60;70.90;;;;;;5075753;28;20039;-40
2021/06/30 04:07:43;;;;;;;5.40;3.25;;;21.70;70.60;;;;;;5075464;28;20037;-39
2021/06/30 04:10:10;;;;;;;4.30;3.50;;;21.80;70.00;;;;;;5075902;28;20064;-38
2021/06/30 04:12:35;;;;;;;5.78;3.75;;;21.90;69.60;;;;;;5075297;28;20033;-39
2021/06/30 04:15:01;;;;;;;6.35;3.83;;;22.00;69.50;;;;;;5075745;28;20043;-39
2021/06/30 04:17:26;;;;;;;4.22;3.53;;;22.10;69.50;;;;;;5075351;28;20029;-38
2021/06/30 04:19:52;;;;;;;5.32;4.25;;;22.10;70.40;;;;;;5075612;28;20048;-39
2021/06/30 04:22:18;;;;;;;6.53;3.78;;;22.20;70.10;;;;;;5074846;28;20040;-38
2021/06/30 04:24:43;;;;;;;7.15;3.85;;;22.30;69.80;;;;;;5075747;28;20036;-39
2021/06/30 04:27:09;;;;;;;5.25;3.65;;;22.30;69.60;;;;;;5075165;28;20356;-38
2021/06/30 04:29:34;;;;;;;5.30;3.80;;;22.40;69.00;;;;;;5075499;28;20032;-38
2021/06/30 04:32:00;;;;;;;6.88;3.90;;;22.50;68.80;;;;;;5075204;28;20085;-39
2021/06/30 04:34:26;;;;;;;5.50;3.65;;;22.50;68.30;;;;;;5075277;28;20032;-40
2021/06/30 04:36:51;;;;;;;5.70;3.72;;;22.60;68.40;;;;;;5074887;28;20051;-39
2021/06/30 04:39:19;;;;;;;4.10;3.42;;;22.60;68.30;;;;;;5075166;28;20412;-38
2021/06/30 04:41:46;;;;;;;4.38;3.17;;;22.70;67.90;;;;;;5074933;28;20045;-38
2021/06/30 04:44:12;;;;;;;7.13;4.10;;;22.80;67.80;;;;;;5074995;28;20435;-39
2021/06/30 04:46:38;;;;;;;7.25;4.15;;;22.80;67.60;;;;;;5075429;28;20029;-39
2021/06/30 04:49:03;;;;;;;5.97;4.00;;;22.90;67.50;;;;;;5075002;28;20067;-38
2021/06/30 04:51:29;;;;;;;4.53;3.80;;;22.90;67.00;;;;;;5075377;28;20045;-40
2021/06/30 04:53:55;;;;;;;6.47;4.45;;;23.00;67.00;;;;;;5074991;28;20320;-39
2021/06/30 04:56:26;;;;;;;4.07;3.58;;;23.00;66.90;;;;;;5075407;28;20025;-39
2021/06/30 04:58:54;;;;;;;5.25;3.92;;;23.10;66.80;;;;;;5074894;28;20032;-39
2021/06/30 05:01:20;;;;;;;5.93;3.80;;;23.10;66.50;;;;;;5075007;28;20302;-39
2021/06/30 05:03:46;;;;;;;4.57;3.95;;;23.20;66.40;;;;;;5074618;28;20035;-38
2021/06/30 05:06:12;;;;;;;4.95;4.20;;;23.20;66.20;;;;;;5076059;28;20055;-39
2021/06/30 05:08:38;;;;;;;7.20;5.30;;;23.30;66.30;;;;;;5078349;28;20046;-40
2021/06/30 05:11:04;;;;;;;5.47;4.68;;;23.30;66.30;;;;;;5078902;28;20032;-39
2021/06/30 05:13:29;;;;;;;5.07;4.00;;;23.40;66.10;;;;;;5077090;28;20033;-38
2021/06/30 05:15:55;;;;;;;6.10;3.90;;;23.40;65.70;;;;;;5079091;28;20089;-39
2021/06/30 05:18:21;;;;;;;6.13;3.97;;;23.50;65.70;;;;;;5078238;28;20492;-38
2021/06/30 05:20:47;;;;;;;5.03;4.13;;;23.50;65.80;;;;;;5078712;28;20064;-39
2021/06/30 05:23:13;;;;;;;6.18;3.85;;;23.50;65.30;;;;;;5077988;28;20096;-38
2021/06/30 05:25:39;;;;;;;9.98;4.30;;;23.50;65.00;;;;;;5078488;28;20081;-39
2021/06/30 05:28:05;;;;;;;4.25;3.55;;;23.50;64.90;;;;;;5078099;28;20401;-38
2021/06/30 05:30:30;;;;;;;6.05;3.60;;;23.60;64.90;;;;;;5078514;28;20028;-39
2021/06/30 05:32:56;;;;;;;6.13;3.85;;;23.60;64.70;;;;;;5076690;28;20035;-39
2021/06/30 05:35:22;;;;;;;6.95;4.85;;;23.60;64.70;;;;;;5078203;28;20047;-39
2021/06/30 05:37:47;;;;;;;5.82;4.43;;;23.70;64.60;;;;;;5077582;28;20025;-37
2021/06/30 05:40:13;;;;;;;4.22;3.60;;;23.70;64.90;;;;;;5077938;28;20116;-38
2021/06/30 05:42:39;;;;;;;4.22;3.70;;;23.70;64.80;;;;;;5077445;28;20396;-38
2021/06/30 05:45:07;;;;;;;6.50;3.88;;;23.80;65.10;;;;;;5078098;28;20328;-39
2021/06/30 05:47:33;;;;;;;4.65;3.83;;;23.80;64.80;;;;;;5077421;28;20035;-40
2021/06/30 05:49:59;;;;;;;39.22;6.03;;;23.90;64.90;;;;;;5078176;28;20340;-38
2021/06/30 05:52:25;;;;;;;7.43;4.03;;;23.90;64.70;;;;;;5077643;28;20043;-37
2021/06/30 05:54:50;;;;;;;4.97;3.42;;;23.90;64.90;;;;;;5077969;28;20377;-39
2021/06/30 05:57:16;;;;;;;7.93;3.67;;;24.00;64.30;;;;;;5077148;28;20064;-39
2021/06/30 05:59:41;;;;;;;4.30;3.78;;;24.00;63.80;;;;;;5077723;28;20127;-38
2021/06/30 06:02:08;;;;;;;4.07;3.25;;;24.10;63.70;;;;;;5077041;28;20089;-38
2021/06/30 06:04:34;;;;;;;5.18;3.95;;;24.10;63.00;;;;;;5077795;28;20365;-39
2021/06/30 06:06:59;;;;;;;3.65;3.20;;;24.10;62.70;;;;;;5077033;28;20067;-39
2021/06/30 06:09:25;;;;;;;4.65;3.53;;;24.10;62.80;;;;;;5077497;28;20070;-38
2021/06/30 06:11:51;;;;;;;3.90;3.50;;;24.20;62.60;;;;;;5077114;28;20036;-39
2021/06/30 06:14:16;;;;;;;5.30;3.38;;;24.20;62.60;;;;;;5077756;28;20036;-39
2021/06/30 06:16:42;;;;;;;6.13;3.40;;;24.30;62.20;;;;;;5077338;28;20036;-39
2021/06/30 06:19:08;;;;;;;5.65;3.50;;;24.30;62.00;;;;;;5076719;28;20027;-38
2021/06/30 06:21:33;;;;;;;4.07;3.55;;;24.30;60.20;;;;;;5076925;28;20417;-40
2021/06/30 06:23:59;;;;;;;3.13;2.80;;;24.30;60.30;;;;;;5077302;28;20078;-38
2021/06/30 06:26:25;;;;;;;3.60;3.00;;;24.30;59.90;;;;;;5077376;28;20408;-39
2021/06/30 06:28:50;;;;;;;4.30;3.53;;;24.40;60.00;;;;;;5077060;28;20032;-38
2021/06/30 06:31:18;;;;;;;3.55;3.00;;;24.40;60.50;;;;;;5077112;28;20043;-40
2021/06/30 06:33:43;;;;;;;4.53;3.30;;;24.40;60.80;;;;;;5076504;28;20447;-39
2021/06/30 06:36:10;;;;;;;4.88;3.30;;;24.40;60.90;;;;;;5077233;28;20037;-40
2021/06/30 06:38:38;;;;;;;3.78;3.33;;;24.50;61.20;;;;;;5076735;28;20033;-39
2021/06/30 06:41:05;;;;;;;4.60;3.30;;;24.60;61.60;;;;;;5076963;28;20036;-37
2021/06/30 06:43:33;;;;;;;4.03;3.03;;;24.60;61.30;;;;;;5076789;28;20024;-38
2021/06/30 06:45:59;;;;;;;4.00;3.10;;;24.70;60.60;;;;;;5077323;28;20035;-38
2021/06/30 06:48:24;;;;;;;3.78;3.10;;;24.70;60.60;;;;;;5076571;28;20119;-38
2021/06/30 06:50:50;;;;;;;4.22;3.05;;;24.70;59.30;;;;;;5077105;28;20427;-39
2021/06/30 06:53:16;;;;;;;2.95;2.63;;;24.80;59.60;;;;;;5076327;28;20444;-39
2021/06/30 06:55:41;;;;;;;5.45;3.70;;;24.80;58.50;;;;;;5071587;28;20064;-37
2021/06/30 06:58:08;;;;;;;5.53;3.10;;;24.90;59.20;;;;;;5075866;28;20035;-38
2021/06/30 07:00:35;;;;;;;4.70;2.80;;;24.90;57.40;;;;;;5076259;28;20036;-38
2021/06/30 07:03:01;;;;;;;4.30;3.53;;;25.00;56.90;;;;;;5075757;28;20029;-37
2021/06/30 07:05:26;;;;;;;12.07;4.72;;;25.00;57.30;;;;;;5075905;28;20033;-38
2021/06/30 07:07:52;;;;;;;5.20;3.95;;;25.00;57.90;;;;;;5075865;28;20033;-38
2021/06/30 07:10:18;;;;;;;8.40;6.30;;;25.10;57.80;;;;;;5076590;28;20025;-38
2021/06/30 07:12:43;;;;;;;4.10;3.58;;;25.10;57.90;;;;;;5075981;28;20044;-37
2021/06/30 07:15:10;;;;;;;6.68;5.28;;;25.20;57.00;;;;;;5076049;28;20413;-37
2021/06/30 07:17:37;;;;;;;7.43;4.97;;;25.30;58.00;;;;;;5075431;28;20032;-38
2021/06/30 07:20:05;;;;;;;12.07;4.90;;;25.30;57.30;;;;;;5076077;28;20028;-38
2021/06/30 07:22:30;;;;;;;6.85;5.05;;;25.40;57.90;;;;;;5075113;28;20086;-38
2021/06/30 07:24:56;;;;;;;8.30;4.82;;;25.40;58.20;;;;;;5075896;28;20294;-37
2021/06/30 07:27:22;;;;;;;8.43;4.15;;;25.50;58.30;;;;;;5074883;28;20035;-37
2021/06/30 07:29:48;;;;;;;7.18;3.63;;;25.50;58.10;;;;;;5075935;28;20270;-37
2021/06/30 07:32:13;;;;;;;12.68;4.90;;;25.60;58.10;;;;;;5075153;28;20039;-38
2021/06/30 07:34:39;;;;;;;8.50;4.65;;;25.70;57.90;;;;;;5075692;28;20029;-37
2021/06/30 07:37:05;;;;;;;7.18;4.05;;;25.70;57.50;;;;;;5074819;28;20059;-37
2021/06/30 07:39:31;;;;;;;5.07;3.90;;;25.80;57.20;;;;;;5074891;28;20337;-38
2021/06/30 07:41:57;;;;;;;4.57;3.15;;;25.80;57.20;;;;;;5072437;28;20040;-38
2021/06/30 07:44:23;;;;;;;4.10;3.20;;;25.90;55.70;;;;;;5075987;28;20381;-37
2021/06/30 07:46:49;;;;;;;8.25;5.40;;;25.90;55.10;;;;;;5075069;28;20485;-38
2021/06/30 07:49:15;;;;;;;4.25;3.42;;;26.00;55.60;;;;;;5075599;28;20031;-38
2021/06/30 07:51:41;;;;;;;8.48;5.55;;;26.00;55.40;;;;;;5075263;28;20057;-37
2021/06/30 07:54:07;;;;;;;7.35;4.25;;;26.00;55.50;;;;;;5075000;28;20029;-37
2021/06/30 07:56:38;;;;;;;7.40;5.18;;;26.00;55.70;;;;;;5075107;28;20094;-37
2021/06/30 07:59:09;;;;;;;5.35;4.15;;;26.10;56.00;;;;;;5075290;28;20035;-38
2021/06/30 08:01:35;;;;;;;5.72;4.30;;;26.10;55.90;;;;;;5074914;28;20039;-38
2021/06/30 08:04:01;;;;;;;9.90;7.07;;;26.10;56.00;;;;;;5074778;28;20032;-38
2021/06/30 08:06:28;;;;;;;8.30;5.32;;;26.20;56.20;;;;;;5071709;28;20029;-38
2021/06/30 08:08:54;;;;;;;9.90;4.95;;;26.20;56.10;;;;;;5055047;28;20017;-38
2021/06/30 08:11:23;;;;;;;7.13;4.72;;;26.20;55.60;;;;;;5055028;28;20357;-38
2021/06/30 08:13:53;;;;;;;8.67;6.40;;;26.30;54.90;;;;;;5055271;28;20390;-38
2021/06/30 08:16:20;;;;;;;11.17;9.93;;;26.30;55.20;;;;;;5054823;28;20041;-38
2021/06/30 08:18:46;;;;;;;7.07;5.45;;;26.30;54.00;;;;;;5054544;28;20328;-38
2021/06/30 08:21:12;;;;;;;6.88;5.25;;;26.40;54.40;;;;;;5054693;28;20135;-39
2021/06/30 08:23:38;;;;;;;6.53;4.15;;;26.40;54.10;;;;;;5054624;28;20324;-38
2021/06/30 08:26:06;;;;;;;3.92;3.53;;;26.40;54.80;;;;;;5054768;28;20021;-38
2021/06/30 08:28:32;;;;;;;9.57;4.90;;;26.50;54.80;;;;;;5054563;28;20033;-38
2021/06/30 08:30:58;;;;;;;5.07;4.45;;;26.60;55.10;;;;;;5054990;28;20033;-38
2021/06/30 08:33:23;;;;;;;9.25;5.53;;;26.60;54.90;;;;;;5054911;28;20037;-37
2021/06/30 08:35:49;;;;;;;10.80;5.18;;;26.70;55.20;;;;;;5054520;28;20045;-37
2021/06/30 08:38:15;;;;;;;7.15;5.22;;;26.70;55.50;;;;;;5054454;28;20044;-38
2021/06/30 08:40:41;;;;;;;7.60;4.80;;;26.80;55.00;;;;;;5054841;28;20056;-38
2021/06/30 08:43:07;;;;;;;20.35;11.32;;;26.80;54.90;;;;;;5058308;28;20033;-38
2021/06/30 08:45:34;;;;;;;21.65;11.45;;;26.90;55.20;;;;;;5069413;28;20047;-38
2021/06/30 08:48:01;;;;;;;16.83;9.88;;;26.90;55.00;;;;;;5069114;28;20029;-37
2021/06/30 08:50:27;;;;;;;14.25;7.28;;;26.90;55.00;;;;;;5058831;28;20298;-38
2021/06/30 08:52:54;;;;;;;11.35;5.93;;;26.90;54.90;;;;;;5071305;28;20082;-38
2021/06/30 08:55:21;;;;;;;8.15;5.43;;;27.00;55.20;;;;;;5068510;28;20021;-38
2021/06/30 08:57:49;;;;;;;14.75;5.15;;;27.00;55.30;;;;;;5057976;28;20033;-37
2021/06/30 09:00:15;;;;;;;7.93;3.90;;;27.00;55.10;;;;;;5057843;28;20055;-37
2021/06/30 09:02:43;;;;;;;6.45;4.38;;;27.10;54.80;;;;;;5057986;28;20076;-38
2021/06/30 09:07:50;;;;;;;7.45;5.50;;;27.10;54.20;;;;;;5058328;28;20028;-38
2021/06/30 09:10:35;;;;;;;;;;;27.20;54.60;;;;;;5057522;28;20033;-38
2021/06/30 09:13:02;;;;;;;7.75;5.15;;;27.20;55.00;;;;;;5058046;28;20270;-38
2021/06/30 09:15:34;;;;;;;5.65;3.80;;;27.30;55.10;;;;;;5058069;28;20056;-38
2021/06/30 09:18:24;;;;;;;5.57;4.43;;;27.30;54.70;;;;;;5057430;28;20033;-37
2021/06/30 09:20:50;;;;;;;8.13;4.28;;;27.40;54.80;;;;;;5056558;28;20036;-39
2021/06/30 09:23:15;;;;;;;9.00;4.30;;;27.40;54.80;;;;;;5057429;28;20370;-38
2021/06/30 09:25:43;;;;;;;7.00;3.88;;;27.50;54.90;;;;;;5058000;28;20021;-38
2021/06/30 09:28:25;;;;;;;6.85;3.88;;;27.50;55.00;;;;;;5057616;28;20494;-37
2021/06/30 09:31:01;;;;;;;4.30;3.33;;;27.60;54.80;;;;;;5058231;28;20060;-38
2021/06/30 09:33:51;;;;;;;6.55;4.03;;;27.60;54.80;;;;;;5075145;28;20036;-38
2021/06/30 09:36:18;;;;;;;10.65;3.97;;;27.70;55.20;;;;;;5078167;28;20336;-38
2021/06/30 09:38:45;;;;;;;5.68;3.53;;;27.70;54.70;;;;;;5077479;28;20375;-37
2021/06/30 09:41:30;;;;;;;10.45;6.18;;;27.80;54.80;;;;;;5069501;28;20095;-39
2021/06/30 09:44:06;;;;;;;10.20;5.15;;;27.90;54.30;;;;;;5057639;28;20087;-37
2021/06/30 09:46:32;;;;;;;5.10;3.83;;;27.90;54.60;;;;;;5057837;28;20107;-37
2021/06/30 09:49:01;;;;;;;10.05;5.80;;;27.90;54.90;;;;;;5057108;28;20075;-47
2021/06/30 09:51:27;;;;;;;9.57;4.93;;;28.00;54.50;;;;;;5056116;28;20063;-45
2021/06/30 09:54:02;;;;;;;8.50;4.20;;;28.10;54.40;;;;;;5055448;28;20029;-46
2021/06/30 09:56:37;;;;;;;7.95;5.00;;;28.20;54.30;;;;;;5057569;28;20041;-45
2021/06/30 09:59:09;;;;;;;5.97;3.80;;;28.30;54.20;;;;;;5057185;28;20368;-46
2021/06/30 10:01:36;;;;;;;8.32;5.15;;;28.40;53.60;;;;;;5057136;28;20056;-45
2021/06/30 10:04:02;;;;;;;5.88;3.78;;;28.50;53.90;;;;;;5056933;28;20316;-45
2021/06/30 10:06:33;;;;;;;13.00;4.22;;;28.60;53.60;;;;;;5057338;28;20052;-46
2021/06/30 10:09:01;;;;;;;6.32;3.85;;;28.70;53.20;;;;;;5056813;28;20413;-47
2021/06/30 10:11:28;;;;;;;9.95;3.88;;;28.80;53.20;;;;;;5057389;28;20381;-45
2021/06/30 10:13:55;;;;;;;4.05;3.28;;;28.90;53.70;;;;;;5056720;28;20029;-44
2021/06/30 10:16:22;;;;;;;5.13;3.83;;;29.00;53.50;;;;;;5057731;28;20367;-46
2021/06/30 10:18:56;;;;;;;4.75;3.55;;;29.10;53.00;;;;;;5056618;28;20029;-43
2021/06/30 10:21:25;;;;;;;5.82;3.70;;;29.20;53.20;;;;;;5056833;28;20032;-44
2021/06/30 10:23:51;;;;;;;4.40;3.97;;;29.20;53.40;;;;;;5056742;28;20029;-44
2021/06/30 10:26:19;;;;;;;7.78;4.32;;;29.20;53.30;;;;;;5057183;28;20137;-44
2021/06/30 10:28:49;;;;;;;5.00;4.00;;;29.30;52.50;;;;;;5056600;28;20329;-45
2021/06/30 10:31:16;;;;;;;9.80;4.70;;;29.30;52.20;;;;;;5057049;28;20029;-45
2021/06/30 10:33:41;;;;;;;6.45;3.90;;;29.30;52.10;;;;;;5056324;28;20057;-47
2021/06/30 10:36:08;;;;;;;4.40;3.58;;;29.20;51.90;;;;;;5056579;28;20122;-45
2021/06/30 10:38:55;;;;;;;5.32;3.80;;;29.20;51.80;;;;;;5055906;28;20020;-44
2021/06/30 10:41:50;;;;;;;17.13;6.22;;;29.20;52.10;;;;;;5056547;28;20453;-44
2021/06/30 10:44:22;;;;;;;7.05;4.43;;;29.20;52.10;;;;;;5056678;28;20044;-43
2021/06/30 10:46:48;;;;;;;7.07;3.92;;;29.20;52.30;;;;;;5056550;28;20036;-44
2021/06/30 10:49:15;;;;;;;8.35;6.43;;;29.20;52.60;;;;;;5056369;28;20025;-44
2021/06/30 10:51:42;;;;;;;6.90;4.68;;;29.30;52.30;;;;;;5056395;28;20110;-48
2021/06/30 10:54:32;;;;;;;9.25;6.10;;;29.30;52.20;;;;;;5056080;28;20033;-45
2021/06/30 10:57:21;;;;;;;5.78;5.07;;;29.50;52.40;;;;;;5056309;28;20306;-47
2021/06/30 11:00:02;;;;;;;7.82;6.15;;;29.50;52.20;;;;;;5056292;28;20313;-49
2021/06/30 11:02:32;;;;;;;6.50;4.38;;;29.60;51.70;;;;;;5055784;28;20037;-46
2021/06/30 11:05:13;;;;;;;13.25;9.82;;;29.70;51.90;;;;;;5055969;28;20083;-42
2021/06/30 11:07:40;;;;;;;11.98;7.97;;;29.80;51.10;;;;;;5055553;28;20041;-45
2021/06/30 11:10:21;;;;;;;10.05;5.95;;;29.80;50.80;;;;;;5056190;28;20029;-42
2021/06/30 11:13:00;;;;;;;8.85;7.10;;;29.80;51.10;;;;;;5056211;28;20044;-45
2021/06/30 11:15:38;;;;;;;11.83;6.30;;;29.70;51.20;;;;;;5056076;28;20031;-43
2021/06/30 11:18:24;;;;;;;4.93;4.13;;;29.60;51.20;;;;;;5056331;28;20255;-43
2021/06/30 11:20:54;;;;;;;8.90;4.82;;;29.60;51.60;;;;;;5055363;28;20314;-43
2021/06/30 11:23:24;;;;;;;9.38;6.70;;;29.50;52.10;;;;;;5055474;28;20025;-45
2021/06/30 11:25:55;;;;;;;11.68;6.15;;;29.50;51.90;;;;;;5056162;28;20202;-43
2021/06/30 11:28:36;;;;;;;11.00;5.18;;;29.60;51.90;;;;;;5055263;28;20406;-44
2021/06/30 11:31:26;;;;;;;5.07;4.20;;;29.70;51.10;;;;;;5055912;28;20040;-42
2021/06/30 11:34:19;;;;;;;8.18;4.80;;;29.90;51.10;;;;;;5054993;28;20040;-43
2021/06/30 11:36:44;;;;;;;7.88;4.45;;;30.00;50.90;;;;;;5054556;28;20072;-43
2021/06/30 11:39:13;;;;;;;4.57;3.70;;;30.10;50.30;;;;;;5054962;28;20072;-44
2021/06/30 11:41:45;;;;;;;;;;;30.10;49.20;;;;;;5055334;28;20099;-44
2021/06/30 11:44:11;;;;;;;7.65;5.90;;;30.10;49.90;;;;;;5054831;28;19908;-44
2021/06/30 11:46:50;;;;;;;7.53;5.40;;;30.10;50.00;;;;;;5055241;28;20116;-44
2021/06/30 11:49:19;;;;;;;6.70;5.80;;;30.20;49.80;;;;;;5055202;28;20318;-45
2021/06/30 11:51:56;;;;;;;8.70;4.95;;;30.40;50.10;;;;;;5055144;28;20058;-45
2021/06/30 11:54:21;;;;;;;8.63;4.63;;;30.50;48.90;;;;;;5055270;28;20090;-45
2021/06/30 11:56:47;;;;;;;6.38;4.05;;;30.60;49.10;;;;;;5054891;28;20036;-43
2021/06/30 11:59:22;;;;;;;4.20;3.78;;;30.80;49.00;;;;;;5054694;28;20052;-43
2021/06/30 12:01:49;;;;;;;8.32;3.67;;;31.00;48.40;;;;;;5053259;28;20029;-44
2021/06/30 12:04:27;;;;;;;4.65;4.18;;;31.10;47.40;;;;;;5063698;28;20033;-44
2021/06/30 12:06:57;;;;;;;4.43;3.47;;;31.30;46.70;;;;;;5074651;28;20055;-42
2021/06/30 12:09:27;;;;;;;10.98;6.63;;;31.40;46.00;;;;;;5072251;28;20017;-45
2021/06/30 12:11:56;;;;;;;7.30;5.47;;;31.60;46.60;;;;;;5074515;28;20298;-45
2021/06/30 12:14:27;;;;;;;4.60;3.75;;;31.60;45.80;;;;;;5054899;28;20025;-46
2021/06/30 12:17:02;;;;;;;5.18;4.10;;;31.70;45.20;;;;;;5054161;28;20041;-42
2021/06/30 12:19:32;;;;;;;7.93;5.05;;;31.60;45.60;;;;;;5054328;28;20358;-43
2021/06/30 12:21:58;;;;;;;8.43;3.67;;;31.70;45.80;;;;;;5053882;28;20041;-44
2021/06/30 12:24:25;;;;;;;7.72;3.40;;;31.70;45.40;;;;;;5054055;28;20033;-44
2021/06/30 12:26:58;;;;;;;6.43;4.35;;;31.90;45.20;;;;;;5054870;28;20088;-43
2021/06/30 12:29:24;;;;;;;5.80;4.47;;;32.10;45.00;;;;;;5070294;28;20473;-47
2021/06/30 12:31:50;;;;;;;5.82;3.45;;;32.40;44.70;;;;;;5054841;28;20119;-43
2021/06/30 12:34:15;;;;;;;11.90;8.05;;;32.50;44.60;;;;;;5054782;28;20064;-44
2021/06/30 12:36:42;;;;;;;10.85;9.00;;;32.70;44.40;;;;;;5055013;28;20040;-45
2021/06/30 12:39:23;;;;;;;6.55;5.47;;;32.90;44.10;;;;;;5054717;28;20099;-45
2021/06/30 12:42:00;;;;;;;6.72;5.18;;;33.10;44.10;;;;;;5054895;28;20033;-47
2021/06/30 12:44:28;;;;;;;5.85;3.70;;;33.20;43.80;;;;;;5054941;28;20360;-47
2021/06/30 12:47:08;;;;;;;8.00;5.78;;;33.20;43.40;;;;;;5054392;28;20029;-45
2021/06/30 12:49:33;;;;;;;5.30;3.63;;;33.20;43.80;;;;;;5054637;28;20116;-43
2021/06/30 12:51:59;;;;;;;4.97;3.30;;;33.30;44.00;;;;;;5054352;28;20120;-44